sensor_id;sensor_type;location;lat;lon;timestamp;pressure;altitude;pressure_sealevel;temperature;humidity
23118;BME280;11728;50.624;6.014;2023-01-19T00:00:53;97017.78;;;2.16;93.57
23118;BME280;11728;50.624;6.014;2023-01-19T00:05:53;97019.50;;;2.16;94.16
23118;BME280;11728;50.624;6.014;2023-01-19T00:10:54;97014.34;;;2.11;93.67
23118;BME280;11728;50.624;6.014;2023-01-19T00:15:54;97017.00;;;2.07;94.12
23118;BME280;11728;50.624;6.014;2023-01-19T00:20:55;97023.06;;;2.07;94.72
23118;BME280;11728;50.624;6.014;2023-01-19T00:25:55;97023.06;;;2.07;95.25
23118;BME280;11728;50.624;6.014;2023-01-19T00:30:56;97018.72;;;2.09;95.61
23118;BME280;11728;50.624;6.014;2023-01-19T00:35:56;97015.19;;;2.16;94.89
23118;BME280;11728;50.624;6.014;2023-01-19T00:40:57;97020.38;;;2.16;94.98
23118;BME280;11728;50.624;6.014;2023-01-19T00:45:57;97020.41;;;2.13;94.93
23118;BME280;11728;50.624;6.014;2023-01-19T00:50:58;97024.88;;;2.02;95.26
23118;BME280;11728;50.624;6.014;2023-01-19T00:55:59;97023.22;;;1.95;95.87
23118;BME280;11728;50.624;6.014;2023-01-19T01:00:59;97019.81;;;1.87;95.37
23118;BME280;11728;50.624;6.014;2023-01-19T01:06:03;97023.38;;;1.77;95.86
23118;BME280;11728;50.624;6.014;2023-01-19T01:11:06;97022.53;;;1.77;96.38
23118;BME280;11728;50.624;6.014;2023-01-19T01:16:06;97028.56;;;1.77;96.97
23118;BME280;11728;50.624;6.014;2023-01-19T01:21:09;97036.34;;;1.79;96.91
23118;BME280;11728;50.624;6.014;2023-01-19T01:26:12;97045.03;;;1.79;96.63
23118;BME280;11728;50.624;6.014;2023-01-19T01:31:12;97050.22;;;1.81;96.60
23118;BME280;11728;50.624;6.014;2023-01-19T01:36:13;97049.38;;;1.77;96.63
23118;BME280;11728;50.624;6.014;2023-01-19T01:41:13;97035.56;;;1.72;96.51
23118;BME280;11728;50.624;6.014;2023-01-19T01:46:15;97047.78;;;1.64;96.76
23118;BME280;11728;50.624;6.014;2023-01-19T01:51:37;97058.19;;;1.61;96.81
23118;BME280;11728;50.624;6.014;2023-01-19T01:56:45;97063.41;;;1.61;97.04
23118;BME280;11728;50.624;6.014;2023-01-19T02:01:46;97063.38;;;1.64;97.28
23118;BME280;11728;50.624;6.014;2023-01-19T02:07:05;97060.69;;;1.72;97.27
23118;BME280;11728;50.624;6.014;2023-01-19T02:12:25;97063.34;;;1.67;96.98
23118;BME280;11728;50.624;6.014;2023-01-19T02:17:45;97065.16;;;1.55;97.59
23118;BME280;11728;50.624;6.014;2023-01-19T02:22:50;97070.47;;;1.46;98.35
23118;BME280;11728;50.624;6.014;2023-01-19T02:27:51;97059.19;;;1.44;98.32
23118;BME280;11728;50.624;6.014;2023-01-19T02:32:52;97068.75;;;1.41;98.98
23118;BME280;11728;50.624;6.014;2023-01-19T02:37:52;97060.09;;;1.39;98.70
23118;BME280;11728;50.624;6.014;2023-01-19T02:42:56;97062.78;;;1.28;98.47
23118;BME280;11728;50.624;6.014;2023-01-19T02:47:59;97067.16;;;1.20;99.09
23118;BME280;11728;50.624;6.014;2023-01-19T02:58:33;97058.53;;;1.17;99.75
23118;BME280;11728;50.624;6.014;2023-01-19T03:03:54;97041.28;;;1.07;99.49
23118;BME280;11728;50.624;6.014;2023-01-19T03:09:12;97040.47;;;0.99;99.59
23118;BME280;11728;50.624;6.014;2023-01-19T03:14:20;97046.56;;;0.92;100.00
23118;BME280;11728;50.624;6.014;2023-01-19T03:19:33;97055.25;;;0.85;100.00
23118;BME280;11728;50.624;6.014;2023-01-19T03:24:38;97059.59;;;0.87;100.00
23118;BME280;11728;50.624;6.014;2023-01-19T03:29:42;97067.38;;;0.89;100.00
23118;BME280;11728;50.624;6.014;2023-01-19T03:34:47;97063.00;;;0.95;100.00
23118;BME280;11728;50.624;6.014;2023-01-19T03:39:50;97070.75;;;1.03;100.00
23118;BME280;11728;50.624;6.014;2023-01-19T03:44:52;97068.97;;;1.14;100.00
23118;BME280;11728;50.624;6.014;2023-01-19T03:49:55;97062.00;;;1.19;100.00
23118;BME280;11728;50.624;6.014;2023-01-19T03:54:57;97071.41;;;1.33;100.00
23118;BME280;11728;50.624;6.014;2023-01-19T03:59:58;97073.03;;;1.48;99.88
23118;BME280;11728;50.624;6.014;2023-01-19T04:04:58;97070.34;;;1.58;99.12
23118;BME280;11728;50.624;6.014;2023-01-19T04:09:59;97075.53;;;1.62;99.31
23118;BME280;11728;50.624;6.014;2023-01-19T04:14:59;97078.06;;;1.68;99.44
23118;BME280;11728;50.624;6.014;2023-01-19T04:20:00;97073.72;;;1.70;99.01
23118;BME280;11728;50.624;6.014;2023-01-19T04:25:00;97075.41;;;1.74;98.63
23118;BME280;11728;50.624;6.014;2023-01-19T04:30:01;97084.88;;;1.81;97.81
23118;BME280;11728;50.624;6.014;2023-01-19T04:35:03;97077.09;;;1.81;98.41
23118;BME280;11728;50.624;6.014;2023-01-19T04:40:04;97077.97;;;1.79;98.16
23118;BME280;11728;50.624;6.014;2023-01-19T04:45:05;97080.59;;;1.77;98.19
23118;BME280;11728;50.624;6.014;2023-01-19T04:50:06;97085.81;;;1.74;97.92
23118;BME280;11728;50.624;6.014;2023-01-19T04:55:07;97082.41;;;1.69;97.74
23118;BME280;11728;50.624;6.014;2023-01-19T05:00:09;97097.19;;;1.61;98.31
23118;BME280;11728;50.624;6.014;2023-01-19T05:05:09;97092.84;;;1.68;98.53
23118;BME280;11728;50.624;6.014;2023-01-19T05:10:11;97095.34;;;1.75;97.90
23118;BME280;11728;50.624;6.014;2023-01-19T05:15:11;97101.34;;;1.83;98.14
23118;BME280;11728;50.624;6.014;2023-01-19T05:20:12;97089.16;;;1.91;97.85
23118;BME280;11728;50.624;6.014;2023-01-19T05:25:13;97082.19;;;1.93;97.48
23118;BME280;11728;50.624;6.014;2023-01-19T05:30:14;97094.34;;;1.94;97.83
23118;BME280;11728;50.624;6.014;2023-01-19T05:35:15;97100.38;;;1.96;97.84
23118;BME280;11728;50.624;6.014;2023-01-19T05:40:16;97102.13;;;1.99;98.21
23118;BME280;11728;50.624;6.014;2023-01-19T05:45:16;97106.44;;;2.01;97.64
23118;BME280;11728;50.624;6.014;2023-01-19T05:50:17;97111.59;;;2.03;97.61
23118;BME280;11728;50.624;6.014;2023-01-19T05:55:21;97123.72;;;2.05;97.83
23118;BME280;11728;50.624;6.014;2023-01-19T06:00:21;97125.47;;;2.03;97.96
23118;BME280;11728;50.624;6.014;2023-01-19T06:05:22;97127.22;;;2.03;98.25
23118;BME280;11728;50.624;6.014;2023-01-19T06:10:22;97128.97;;;1.99;98.37
23118;BME280;11728;50.624;6.014;2023-01-19T06:15:23;97134.19;;;1.96;98.91
23118;BME280;11728;50.624;6.014;2023-01-19T06:20:23;97133.38;;;1.91;99.88
23118;BME280;11728;50.624;6.014;2023-01-19T06:25:24;97141.22;;;1.90;99.79
23118;BME280;11728;50.624;6.014;2023-01-19T06:30:25;97143.78;;;1.93;100.00
23118;BME280;11728;50.624;6.014;2023-01-19T06:35:26;97144.59;;;1.99;99.50
23118;BME280;11728;50.624;6.014;2023-01-19T06:40:26;97148.94;;;2.00;99.74
23118;BME280;11728;50.624;6.014;2023-01-19T06:45:27;97148.06;;;2.00;99.89
23118;BME280;11728;50.624;6.014;2023-01-19T06:50:27;97153.22;;;2.04;99.49
23118;BME280;11728;50.624;6.014;2023-01-19T06:55:28;97157.59;;;2.04;99.39
23118;BME280;11728;50.624;6.014;2023-01-19T07:00:29;97172.31;;;2.06;99.33
23118;BME280;11728;50.624;6.014;2023-01-19T07:05:29;97171.47;;;2.03;99.34
23118;BME280;11728;50.624;6.014;2023-01-19T07:10:30;97174.03;;;2.04;99.24
23118;BME280;11728;50.624;6.014;2023-01-19T07:15:30;97181.88;;;2.06;99.40
23118;BME280;11728;50.624;6.014;2023-01-19T07:20:30;97191.44;;;2.02;99.87
23118;BME280;11728;50.624;6.014;2023-01-19T07:25:31;97202.72;;;2.01;99.65
23118;BME280;11728;50.624;6.014;2023-01-19T07:30:32;97199.22;;;2.04;99.61
23118;BME280;11728;50.624;6.014;2023-01-19T07:35:32;97200.06;;;2.04;99.74
23118;BME280;11728;50.624;6.014;2023-01-19T07:40:32;97194.88;;;2.04;99.90
23118;BME280;11728;50.624;6.014;2023-01-19T07:45:34;97203.50;;;2.08;100.00
23118;BME280;11728;50.624;6.014;2023-01-19T07:50:34;97210.44;;;2.10;99.70
23118;BME280;11728;50.624;6.014;2023-01-19T07:55:35;97218.22;;;2.13;100.00
23118;BME280;11728;50.624;6.014;2023-01-19T08:00:36;97218.22;;;2.16;100.00
23118;BME280;11728;50.624;6.014;2023-01-19T08:05:37;97233.00;;;2.11;100.00
23118;BME280;11728;50.624;6.014;2023-01-19T08:10:38;97228.63;;;2.15;100.00
23118;BME280;11728;50.624;6.014;2023-01-19T08:15:38;97244.25;;;2.16;100.00
23118;BME280;11728;50.624;6.014;2023-01-19T08:20:39;97251.19;;;2.16;100.00
23118;BME280;11728;50.624;6.014;2023-01-19T08:25:41;97261.59;;;2.19;100.00
23118;BME280;11728;50.624;6.014;2023-01-19T08:30:43;97271.16;;;2.15;100.00
23118;BME280;11728;50.624;6.014;2023-01-19T08:35:47;97272.88;;;2.16;100.00
23118;BME280;11728;50.624;6.014;2023-01-19T08:40:48;97281.56;;;2.15;100.00
23118;BME280;11728;50.624;6.014;2023-01-19T08:45:50;97291.94;;;2.18;100.00
23118;BME280;11728;50.624;6.014;2023-01-19T08:50:52;97286.72;;;2.18;100.00
23118;BME280;11728;50.624;6.014;2023-01-19T08:55:56;97298.03;;;2.19;100.00
23118;BME280;11728;50.624;6.014;2023-01-19T09:00:59;97301.50;;;2.15;100.00
23118;BME280;11728;50.624;6.014;2023-01-19T09:06:00;97298.03;;;2.16;100.00
23118;BME280;11728;50.624;6.014;2023-01-19T09:11:02;97300.63;;;2.23;100.00
23118;BME280;11728;50.624;6.014;2023-01-19T09:16:04;97302.31;;;2.27;100.00
23118;BME280;11728;50.624;6.014;2023-01-19T09:21:07;97309.25;;;2.25;100.00
23118;BME280;11728;50.624;6.014;2023-01-19T09:26:08;97312.72;;;2.27;100.00
23118;BME280;11728;50.624;6.014;2023-01-19T09:31:09;97316.13;;;2.35;100.00
23118;BME280;11728;50.624;6.014;2023-01-19T09:36:09;97318.75;;;2.38;100.00
23118;BME280;11728;50.624;6.014;2023-01-19T09:41:20;97330.91;;;2.31;100.00
23118;BME280;11728;50.624;6.014;2023-01-19T09:46:32;97327.44;;;2.35;100.00
23118;BME280;11728;50.624;6.014;2023-01-19T09:51:38;97336.91;;;2.44;100.00
23118;BME280;11728;50.624;6.014;2023-01-19T09:56:41;97338.59;;;2.51;100.00
23118;BME280;11728;50.624;6.014;2023-01-19T10:01:47;97350.72;;;2.56;100.00
23118;BME280;11728;50.624;6.014;2023-01-19T10:06:55;97346.34;;;2.61;100.00
23118;BME280;11728;50.624;6.014;2023-01-19T10:12:15;97348.91;;;2.66;100.00
23118;BME280;11728;50.624;6.014;2023-01-19T10:22:38;97357.53;;;2.74;100.00
23118;BME280;11728;50.624;6.014;2023-01-19T10:27:39;97357.44;;;2.86;100.00
23118;BME280;11728;50.624;6.014;2023-01-19T10:32:39;97365.25;;;2.87;99.47
23118;BME280;11728;50.624;6.014;2023-01-19T10:37:40;97361.75;;;2.90;100.00
23118;BME280;11728;50.624;6.014;2023-01-19T10:42:41;97357.38;;;2.92;99.20
23118;BME280;11728;50.624;6.014;2023-01-19T10:47:43;97360.84;;;2.97;99.76
23118;BME280;11728;50.624;6.014;2023-01-19T10:52:52;97353.03;;;2.94;99.29
23118;BME280;11728;50.624;6.014;2023-01-19T10:57:53;97353.88;;;2.99;99.16
23118;BME280;11728;50.624;6.014;2023-01-19T11:02:53;97344.28;;;3.01;99.21
23118;BME280;11728;50.624;6.014;2023-01-19T11:07:54;97345.03;;;3.10;98.72
23118;BME280;11728;50.624;6.014;2023-01-19T11:13:09;97350.03;;;3.35;98.92
23118;BME280;11728;50.624;6.014;2023-01-19T11:18:30;97347.91;;;3.70;98.56
23118;BME280;11728;50.624;6.014;2023-01-19T11:23:34;97350.78;;;4.17;96.59
23118;BME280;11728;50.624;6.014;2023-01-19T11:28:45;97343.19;;;5.13;93.66
23118;BME280;11728;50.624;6.014;2023-01-19T11:33:51;97348.28;;;4.69;91.02
23118;BME280;11728;50.624;6.014;2023-01-19T11:38:58;97338.50;;;4.25;91.71
23118;BME280;11728;50.624;6.014;2023-01-19T11:49:32;97340.97;;;3.66;92.85
23118;BME280;11728;50.624;6.014;2023-01-19T12:00:41;97351.81;;;3.30;93.23
23118;BME280;11728;50.624;6.014;2023-01-19T12:05:40;97346.69;;;3.21;94.10
23118;BME280;11728;50.624;6.014;2023-01-19T12:10:45;97347.59;;;3.20;94.17
23118;BME280;11728;50.624;6.014;2023-01-19T12:15:50;97339.75;;;3.22;93.93
23118;BME280;11728;50.624;6.014;2023-01-19T12:20:53;97338.84;;;3.24;94.32
23118;BME280;11728;50.624;6.014;2023-01-19T12:31:04;97337.91;;;3.31;93.93
23118;BME280;11728;50.624;6.014;2023-01-19T12:41:38;97327.88;;;3.71;92.58
23118;BME280;11728;50.624;6.014;2023-01-19T12:57:31;97331.78;;;4.06;89.18
23118;BME280;11728;50.624;6.014;2023-01-19T13:02:44;97324.19;;;3.89;89.34
23118;BME280;11728;50.624;6.014;2023-01-19T13:13:16;97330.44;;;3.75;89.39
23118;BME280;11728;50.624;6.014;2023-01-19T13:18:38;97328.88;;;3.62;89.38
23118;BME280;11728;50.624;6.014;2023-01-19T13:28:51;97340.16;;;3.63;89.42
23118;BME280;11728;50.624;6.014;2023-01-19T13:33:54;97328.88;;;3.62;89.39
23118;BME280;11728;50.624;6.014;2023-01-19T13:38:57;97337.56;;;3.61;90.13
23118;BME280;11728;50.624;6.014;2023-01-19T13:44:06;97346.28;;;3.60;89.55
23118;BME280;11728;50.624;6.014;2023-01-19T13:49:18;97342.88;;;3.52;89.23
23118;BME280;11728;50.624;6.014;2023-01-19T13:54:20;97349.91;;;3.47;89.52
23118;BME280;11728;50.624;6.014;2023-01-19T13:59:20;97352.59;;;3.41;89.31
23118;BME280;11728;50.624;6.014;2023-01-19T14:04:32;97352.59;;;3.38;89.85
23118;BME280;11728;50.624;6.014;2023-01-19T14:09:33;97354.34;;;3.38;88.96
23118;BME280;11728;50.624;6.014;2023-01-19T14:14:33;97357.78;;;3.40;89.22
23118;BME280;11728;50.624;6.014;2023-01-19T14:19:48;97363.91;;;3.37;89.16
23118;BME280;11728;50.624;6.014;2023-01-19T14:24:48;97366.53;;;3.36;89.30
23118;BME280;11728;50.624;6.014;2023-01-19T14:29:50;97361.28;;;3.40;88.58
23118;BME280;11728;50.624;6.014;2023-01-19T14:45:18;97367.31;;;3.45;88.10
23118;BME280;11728;50.624;6.014;2023-01-19T14:50:26;97371.69;;;3.42;87.92
23118;BME280;11728;50.624;6.014;2023-01-19T14:55:32;97370.00;;;3.39;87.08
23118;BME280;11728;50.624;6.014;2023-01-19T15:00:33;97374.41;;;3.34;87.18
23118;BME280;11728;50.624;6.014;2023-01-19T15:05:34;97374.41;;;3.31;86.59
23118;BME280;11728;50.624;6.014;2023-01-19T15:10:35;97377.00;;;3.33;86.74
23118;BME280;11728;50.624;6.014;2023-01-19T15:15:36;97372.72;;;3.27;86.33
23118;BME280;11728;50.624;6.014;2023-01-19T15:20:36;97376.16;;;3.29;85.82
23118;BME280;11728;50.624;6.014;2023-01-19T15:25:37;97377.00;;;3.34;85.36
23118;BME280;11728;50.624;6.014;2023-01-19T15:30:40;97383.09;;;3.33;85.15
23118;BME280;11728;50.624;6.014;2023-01-19T15:35:41;97377.00;;;3.34;84.76
23118;BME280;11728;50.624;6.014;2023-01-19T15:40:42;97382.16;;;3.37;85.36
23118;BME280;11728;50.624;6.014;2023-01-19T15:45:49;97381.28;;;3.38;84.81
23118;BME280;11728;50.624;6.014;2023-01-19T15:50:52;97377.78;;;3.42;84.78
23118;BME280;11728;50.624;6.014;2023-01-19T15:55:53;97388.22;;;3.42;85.17
23118;BME280;11728;50.624;6.014;2023-01-19T16:00:57;97389.94;;;3.43;84.91
23118;BME280;11728;50.624;6.014;2023-01-19T16:05:59;97383.03;;;3.36;85.48
23118;BME280;11728;50.624;6.014;2023-01-19T16:11:05;97382.31;;;3.25;85.44
23118;BME280;11728;50.624;6.014;2023-01-19T16:16:10;97397.13;;;3.20;85.43
23118;BME280;11728;50.624;6.014;2023-01-19T16:21:13;97394.50;;;3.22;84.98
23118;BME280;11728;50.624;6.014;2023-01-19T16:26:31;97396.25;;;3.20;84.76
23118;BME280;11728;50.624;6.014;2023-01-19T16:31:33;97395.44;;;3.13;85.06
23118;BME280;11728;50.624;6.014;2023-01-19T16:36:36;97394.56;;;3.14;84.88
23118;BME280;11728;50.624;6.014;2023-01-19T16:41:38;97412.84;;;3.11;84.39
23118;BME280;11728;50.624;6.014;2023-01-19T16:46:40;97405.91;;;3.10;84.62
23118;BME280;11728;50.624;6.014;2023-01-19T16:51:56;97411.13;;;3.10;84.50
23118;BME280;11728;50.624;6.014;2023-01-19T16:56:58;97417.22;;;3.08;84.74
23118;BME280;11728;50.624;6.014;2023-01-19T17:01:59;97412.91;;;3.03;84.48
23118;BME280;11728;50.624;6.014;2023-01-19T17:06:59;97435.47;;;3.06;84.16
23118;BME280;11728;50.624;6.014;2023-01-19T17:12:00;97434.56;;;3.12;84.85
23118;BME280;11728;50.624;6.014;2023-01-19T17:17:00;97442.34;;;3.16;84.65
23118;BME280;11728;50.624;6.014;2023-01-19T17:22:01;97448.44;;;3.17;84.98
23118;BME280;11728;50.624;6.014;2023-01-19T17:27:01;97446.69;;;3.20;85.36
23118;BME280;11728;50.624;6.014;2023-01-19T17:32:02;97448.44;;;3.18;84.44
23118;BME280;11728;50.624;6.014;2023-01-19T17:37:03;97456.25;;;3.18;84.67
23118;BME280;11728;50.624;6.014;2023-01-19T17:42:03;97467.53;;;3.19;84.78
23118;BME280;11728;50.624;6.014;2023-01-19T17:47:04;97464.09;;;3.15;85.01
23118;BME280;11728;50.624;6.014;2023-01-19T17:52:04;97461.47;;;3.15;84.77
23118;BME280;11728;50.624;6.014;2023-01-19T17:57:05;97460.59;;;3.16;85.10
23118;BME280;11728;50.624;6.014;2023-01-19T18:02:05;97460.66;;;3.10;85.44
23118;BME280;11728;50.624;6.014;2023-01-19T18:07:06;97476.31;;;3.07;85.93
23118;BME280;11728;50.624;6.014;2023-01-19T18:12:06;97468.44;;;3.13;85.52
23118;BME280;11728;50.624;6.014;2023-01-19T18:17:07;97467.59;;;3.11;85.19
23118;BME280;11728;50.624;6.014;2023-01-19T18:22:07;97473.72;;;3.09;85.01
23118;BME280;11728;50.624;6.014;2023-01-19T18:27:08;97470.22;;;3.08;84.68
23118;BME280;11728;50.624;6.014;2023-01-19T18:32:08;97461.59;;;3.01;84.43
23118;BME280;11728;50.624;6.014;2023-01-19T18:37:09;97466.91;;;2.89;85.23
23118;BME280;11728;50.624;6.014;2023-01-19T18:42:09;97468.72;;;2.75;85.29
23118;BME280;11728;50.624;6.014;2023-01-19T18:47:10;97470.50;;;2.64;86.01
23118;BME280;11728;50.624;6.014;2023-01-19T18:52:10;97474.84;;;2.62;86.18
23118;BME280;11728;50.624;6.014;2023-01-19T18:57:11;97477.47;;;2.62;85.90
23118;BME280;11728;50.624;6.014;2023-01-19T19:02:12;97487.03;;;2.64;86.12
23118;BME280;11728;50.624;6.014;2023-01-19T19:07:12;97488.75;;;2.65;86.60
23118;BME280;11728;50.624;6.014;2023-01-19T19:12:13;97491.34;;;2.67;86.64
23118;BME280;11728;50.624;6.014;2023-01-19T19:17:13;97498.28;;;2.69;86.68
23118;BME280;11728;50.624;6.014;2023-01-19T19:22:14;97496.53;;;2.70;86.84
23118;BME280;11728;50.624;6.014;2023-01-19T19:27:14;97503.47;;;2.74;87.46
23118;BME280;11728;50.624;6.014;2023-01-19T19:32:16;97506.94;;;2.73;87.65
23118;BME280;11728;50.624;6.014;2023-01-19T19:37:19;97506.09;;;2.69;87.71
23118;BME280;11728;50.624;6.014;2023-01-19T19:42:19;97515.63;;;2.72;87.57
23118;BME280;11728;50.624;6.014;2023-01-19T19:47:20;97522.59;;;2.70;88.08
23118;BME280;11728;50.624;6.014;2023-01-19T19:52:20;97524.34;;;2.68;87.92
23118;BME280;11728;50.624;6.014;2023-01-19T19:57:21;97529.53;;;2.71;88.46
23118;BME280;11728;50.624;6.014;2023-01-19T20:02:22;97534.78;;;2.65;88.72
23118;BME280;11728;50.624;6.014;2023-01-19T20:07:22;97538.28;;;2.61;89.32
23118;BME280;11728;50.624;6.014;2023-01-19T20:12:23;97546.06;;;2.64;89.60
23118;BME280;11728;50.624;6.014;2023-01-19T20:17:23;97546.97;;;2.64;89.23
23118;BME280;11728;50.624;6.014;2023-01-19T20:22:23;97553.00;;;2.74;89.45
23118;BME280;11728;50.624;6.014;2023-01-19T20:27:24;97553.81;;;2.79;89.13
23118;BME280;11728;50.624;6.014;2023-01-19T20:32:25;97552.09;;;2.81;88.98
23118;BME280;11728;50.624;6.014;2023-01-19T20:37:25;97549.50;;;2.76;88.76
23118;BME280;11728;50.624;6.014;2023-01-19T20:42:26;97557.38;;;2.66;89.19
23118;BME280;11728;50.624;6.014;2023-01-19T20:47:26;97573.91;;;2.57;89.88
23118;BME280;11728;50.624;6.014;2023-01-19T20:52:27;97577.38;;;2.53;89.92
23118;BME280;11728;50.624;6.014;2023-01-19T20:57:27;97579.97;;;2.58;90.30
23118;BME280;11728;50.624;6.014;2023-01-19T21:02:28;97597.31;;;2.65;90.01
23118;BME280;11728;50.624;6.014;2023-01-19T21:07:28;97598.19;;;2.64;89.33
23118;BME280;11728;50.624;6.014;2023-01-19T21:12:29;97607.75;;;2.59;89.70
23118;BME280;11728;50.624;6.014;2023-01-19T21:17:29;97625.16;;;2.51;90.15
23118;BME280;11728;50.624;6.014;2023-01-19T21:22:30;97629.50;;;2.52;90.92
23118;BME280;11728;50.624;6.014;2023-01-19T21:27:30;97633.81;;;2.56;90.76
23118;BME280;11728;50.624;6.014;2023-01-19T21:32:30;97642.50;;;2.58;90.48
23118;BME280;11728;50.624;6.014;2023-01-19T21:37:31;97636.41;;;2.56;91.34
23118;BME280;11728;50.624;6.014;2023-01-19T21:42:31;97651.22;;;2.54;91.13
23118;BME280;11728;50.624;6.014;2023-01-19T21:47:35;97654.66;;;2.51;91.12
23118;BME280;11728;50.624;6.014;2023-01-19T21:52:36;97665.06;;;2.56;91.22
23118;BME280;11728;50.624;6.014;2023-01-19T21:57:38;97663.34;;;2.62;90.85
23118;BME280;11728;50.624;6.014;2023-01-19T22:02:38;97670.25;;;2.62;91.25
23118;BME280;11728;50.624;6.014;2023-01-19T22:07:38;97670.31;;;2.53;90.92
23118;BME280;11728;50.624;6.014;2023-01-19T22:12:39;97687.66;;;2.48;91.29
23118;BME280;11728;50.624;6.014;2023-01-19T22:17:39;97680.75;;;2.38;91.45
23118;BME280;11728;50.624;6.014;2023-01-19T22:22:40;97680.75;;;2.35;92.19
23118;BME280;11728;50.624;6.014;2023-01-19T22:27:40;97689.44;;;2.28;92.34
23118;BME280;11728;50.624;6.014;2023-01-19T22:32:41;97694.63;;;2.19;92.48
23118;BME280;11728;50.624;6.014;2023-01-19T22:37:41;97689.44;;;2.13;93.02
23118;BME280;11728;50.624;6.014;2023-01-19T22:42:46;97700.72;;;2.17;93.75
23118;BME280;11728;50.624;6.014;2023-01-19T22:47:47;97698.97;;;2.20;93.31
23118;BME280;11728;50.624;6.014;2023-01-19T22:52:47;97709.38;;;2.20;94.38
23118;BME280;11728;50.624;6.014;2023-01-19T22:57:48;97701.56;;;2.26;94.44
23118;BME280;11728;50.624;6.014;2023-01-19T23:02:48;97702.44;;;2.28;94.99
23118;BME280;11728;50.624;6.014;2023-01-19T23:07:48;97703.31;;;2.27;95.04
23118;BME280;11728;50.624;6.014;2023-01-19T23:12:49;97708.53;;;2.27;94.58
23118;BME280;11728;50.624;6.014;2023-01-19T23:17:49;97718.94;;;2.24;95.24
23118;BME280;11728;50.624;6.014;2023-01-19T23:22:52;97709.38;;;2.16;94.89
23118;BME280;11728;50.624;6.014;2023-01-19T23:27:53;97716.31;;;1.87;94.95
23118;BME280;11728;50.624;6.014;2023-01-19T23:32:53;97725.81;;;1.61;95.77
23118;BME280;11728;50.624;6.014;2023-01-19T23:37:54;97724.94;;;1.65;96.14
23118;BME280;11728;50.624;6.014;2023-01-19T23:42:54;97731.88;;;1.60;96.35
23118;BME280;11728;50.624;6.014;2023-01-19T23:47:55;97737.09;;;1.69;96.21
23118;BME280;11728;50.624;6.014;2023-01-19T23:52:55;97740.56;;;1.71;96.19
23118;BME280;11728;50.624;6.014;2023-01-19T23:57:56;97747.50;;;1.76;95.68
